sensor_id;sensor_type;location;lat;lon;timestamp;pressure;altitude;pressure_sealevel;temperature;humidity
74637;BME280;63141;54.616;39.754;2023-04-24T00:00:11;100243.00;;;26.64;21.89
74637;BME280;63141;54.616;39.754;2023-04-24T00:03:16;100241.28;;;26.63;21.96
74637;BME280;63141;54.616;39.754;2023-04-24T00:06:22;100244.03;;;26.61;22.19
74637;BME280;63141;54.616;39.754;2023-04-24T00:09:24;100247.69;;;26.60;22.10
74637;BME280;63141;54.616;39.754;2023-04-24T00:12:26;100239.66;;;26.60;22.33
74637;BME280;63141;54.616;39.754;2023-04-24T00:15:28;100245.09;;;26.59;22.00
74637;BME280;63141;54.616;39.754;2023-04-24T00:18:29;100240.69;;;26.58;22.14
74637;BME280;63141;54.616;39.754;2023-04-24T00:21:30;100256.81;;;26.56;22.03
74637;BME280;63141;54.616;39.754;2023-04-24T00:24:33;100251.47;;;26.56;22.07
74637;BME280;63141;54.616;39.754;2023-04-24T00:27:35;100255.09;;;26.55;22.45
74637;BME280;63141;54.616;39.754;2023-04-24T00:30:38;100253.31;;;26.54;22.33
74637;BME280;63141;54.616;39.754;2023-04-24T00:33:39;100264.97;;;26.53;22.21
74637;BME280;63141;54.616;39.754;2023-04-24T00:36:41;100258.84;;;26.51;22.40
74637;BME280;63141;54.616;39.754;2023-04-24T00:39:42;100264.19;;;26.51;22.15
74637;BME280;63141;54.616;39.754;2023-04-24T00:42:44;100259.78;;;26.50;22.13
74637;BME280;63141;54.616;39.754;2023-04-24T00:45:46;100267.78;;;26.50;22.31
74637;BME280;63141;54.616;39.754;2023-04-24T00:48:47;100261.59;;;26.49;22.48
74637;BME280;63141;54.616;39.754;2023-04-24T00:51:49;100271.50;;;26.47;22.22
74637;BME280;63141;54.616;39.754;2023-04-24T00:54:52;100262.63;;;26.47;22.03
74637;BME280;63141;54.616;39.754;2023-04-24T00:57:54;100267.97;;;26.47;22.13
74637;BME280;63141;54.616;39.754;2023-04-24T01:00:58;100253.84;;;26.45;22.32
74637;BME280;63141;54.616;39.754;2023-04-24T01:04:06;100259.19;;;26.45;22.22
74637;BME280;63141;54.616;39.754;2023-04-24T01:07:08;100257.47;;;26.44;22.29
74637;BME280;63141;54.616;39.754;2023-04-24T01:10:13;100261.06;;;26.43;22.46
74637;BME280;63141;54.616;39.754;2023-04-24T01:13:15;100254.03;;;26.42;22.06
74637;BME280;63141;54.616;39.754;2023-04-24T01:16:19;100258.53;;;26.41;22.24
74637;BME280;63141;54.616;39.754;2023-04-24T01:19:23;100262.13;;;26.40;22.52
74637;BME280;63141;54.616;39.754;2023-04-24T01:22:25;100258.59;;;26.40;22.53
74637;BME280;63141;54.616;39.754;2023-04-24T01:25:27;100254.19;;;26.39;22.52
74637;BME280;63141;54.616;39.754;2023-04-24T01:28:32;100260.41;;;26.39;22.58
74637;BME280;63141;54.616;39.754;2023-04-24T01:31:34;100259.53;;;26.39;22.31
74637;BME280;63141;54.616;39.754;2023-04-24T01:34:41;100251.63;;;26.37;22.69
74637;BME280;63141;54.616;39.754;2023-04-24T01:37:43;100244.53;;;26.36;22.71
74637;BME280;63141;54.616;39.754;2023-04-24T01:40:45;100249.03;;;26.36;22.62
74637;BME280;63141;54.616;39.754;2023-04-24T01:43:48;100247.31;;;26.35;22.55
74637;BME280;63141;54.616;39.754;2023-04-24T01:46:50;100255.31;;;26.35;22.34
74637;BME280;63141;54.616;39.754;2023-04-24T01:49:54;100249.09;;;26.34;22.79
74637;BME280;63141;54.616;39.754;2023-04-24T01:52:55;100246.53;;;26.32;22.50
74637;BME280;63141;54.616;39.754;2023-04-24T01:55:57;100247.47;;;26.31;22.20
74637;BME280;63141;54.616;39.754;2023-04-24T01:59:00;100251.09;;;26.30;22.46
74637;BME280;63141;54.616;39.754;2023-04-24T02:02:03;100252.03;;;26.29;22.42
74637;BME280;63141;54.616;39.754;2023-04-24T02:05:10;100255.59;;;26.30;22.41
74637;BME280;63141;54.616;39.754;2023-04-24T02:08:12;100254.81;;;26.28;22.61
74637;BME280;63141;54.616;39.754;2023-04-24T02:11:13;100256.63;;;26.27;22.53
74637;BME280;63141;54.616;39.754;2023-04-24T02:14:17;100258.50;;;26.25;22.81
74637;BME280;63141;54.616;39.754;2023-04-24T02:17:18;100262.09;;;26.24;22.75
74637;BME280;63141;54.616;39.754;2023-04-24T02:20:20;100261.25;;;26.24;22.55
74637;BME280;63141;54.616;39.754;2023-04-24T02:23:21;100266.59;;;26.24;22.63
74637;BME280;63141;54.616;39.754;2023-04-24T02:26:22;100266.66;;;26.22;22.42
74637;BME280;63141;54.616;39.754;2023-04-24T02:29:29;100269.34;;;26.22;22.43
74637;BME280;63141;54.616;39.754;2023-04-24T02:32:30;100267.63;;;26.21;22.85
74637;BME280;63141;54.616;39.754;2023-04-24T02:35:32;100271.22;;;26.20;22.51
74637;BME280;63141;54.616;39.754;2023-04-24T02:38:33;100271.22;;;26.20;22.61
74637;BME280;63141;54.616;39.754;2023-04-24T02:41:34;100269.50;;;26.19;22.49
74637;BME280;63141;54.616;39.754;2023-04-24T02:44:36;100275.78;;;26.18;22.44
74637;BME280;63141;54.616;39.754;2023-04-24T02:47:37;100276.66;;;26.19;22.75
74637;BME280;63141;54.616;39.754;2023-04-24T02:50:38;100278.44;;;26.18;22.71
74637;BME280;63141;54.616;39.754;2023-04-24T02:53:40;100281.22;;;26.17;22.69
74637;BME280;63141;54.616;39.754;2023-04-24T02:56:41;100280.38;;;26.16;22.52
74637;BME280;63141;54.616;39.754;2023-04-24T02:59:43;100281.22;;;26.17;22.43
74637;BME280;63141;54.616;39.754;2023-04-24T03:02:45;100291.91;;;26.17;22.51
74637;BME280;63141;54.616;39.754;2023-04-24T03:05:56;100291.06;;;26.16;22.23
74637;BME280;63141;54.616;39.754;2023-04-24T03:08:58;100291.06;;;26.16;22.77
74637;BME280;63141;54.616;39.754;2023-04-24T03:12:00;100299.81;;;26.18;22.78
74637;BME280;63141;54.616;39.754;2023-04-24T03:15:02;100288.19;;;26.19;22.80
74637;BME280;63141;54.616;39.754;2023-04-24T03:18:03;100298.81;;;26.21;22.64
74637;BME280;63141;54.616;39.754;2023-04-24T03:21:05;100300.53;;;26.22;22.42
74637;BME280;63141;54.616;39.754;2023-04-24T03:24:10;100299.47;;;26.24;22.57
74637;BME280;63141;54.616;39.754;2023-04-24T03:27:12;100310.16;;;26.24;22.89
74637;BME280;63141;54.616;39.754;2023-04-24T03:30:23;100302.09;;;26.26;22.56
74637;BME280;63141;54.616;39.754;2023-04-24T03:33:30;100299.41;;;26.26;22.81
74637;BME280;63141;54.616;39.754;2023-04-24T03:36:36;100303.78;;;26.27;22.55
74637;BME280;63141;54.616;39.754;2023-04-24T03:39:38;100302.94;;;26.26;22.90
74637;BME280;63141;54.616;39.754;2023-04-24T03:42:40;100314.41;;;26.28;23.24
74637;BME280;63141;54.616;39.754;2023-04-24T03:45:41;100302.75;;;26.29;22.61
74637;BME280;63141;54.616;39.754;2023-04-24T03:48:43;100305.44;;;26.29;22.62
74637;BME280;63141;54.616;39.754;2023-04-24T03:51:45;100317.06;;;26.28;22.71
74637;BME280;63141;54.616;39.754;2023-04-24T03:54:56;100316.22;;;26.28;23.06
74637;BME280;63141;54.616;39.754;2023-04-24T03:57:58;100311.72;;;26.28;22.81
74637;BME280;63141;54.616;39.754;2023-04-24T04:01:00;100321.38;;;26.31;23.10
74637;BME280;63141;54.616;39.754;2023-04-24T04:04:39;100328.47;;;26.32;23.47
74637;BME280;63141;54.616;39.754;2023-04-24T04:07:40;100321.31;;;26.32;23.40
74637;BME280;63141;54.616;39.754;2023-04-24T04:10:42;100328.53;;;26.30;22.95
74637;BME280;63141;54.616;39.754;2023-04-24T04:13:46;100328.53;;;26.30;23.08
74637;BME280;63141;54.616;39.754;2023-04-24T04:16:51;100330.34;;;26.30;23.48
74637;BME280;63141;54.616;39.754;2023-04-24T04:19:55;100333.00;;;26.30;23.29
74637;BME280;63141;54.616;39.754;2023-04-24T04:23:06;100327.75;;;26.28;23.59
74637;BME280;63141;54.616;39.754;2023-04-24T04:26:20;100330.66;;;26.24;23.10
74637;BME280;63141;54.616;39.754;2023-04-24T04:29:42;100336.19;;;26.21;23.49
74637;BME280;63141;54.616;39.754;2023-04-24T04:32:48;100340.63;;;26.20;23.47
74637;BME280;63141;54.616;39.754;2023-04-24T04:35:50;100336.25;;;26.19;23.11
74637;BME280;63141;54.616;39.754;2023-04-24T04:38:55;100341.00;;;26.14;22.87
74637;BME280;63141;54.616;39.754;2023-04-24T04:42:16;100342.88;;;26.12;22.92
74637;BME280;63141;54.616;39.754;2023-04-24T04:45:25;100342.03;;;26.11;23.48
74637;BME280;63141;54.616;39.754;2023-04-24T04:48:47;100342.69;;;26.15;23.15
74637;BME280;63141;54.616;39.754;2023-04-24T04:51:49;100335.47;;;26.17;23.43
74637;BME280;63141;54.616;39.754;2023-04-24T04:54:55;100341.66;;;26.18;23.28
74637;BME280;63141;54.616;39.754;2023-04-24T04:58:04;100343.41;;;26.19;22.96
74637;BME280;63141;54.616;39.754;2023-04-24T05:01:06;100344.25;;;26.19;22.93
74637;BME280;63141;54.616;39.754;2023-04-24T05:04:17;100344.25;;;26.19;22.68
74637;BME280;63141;54.616;39.754;2023-04-24T05:07:19;100347.97;;;26.17;22.67
74637;BME280;63141;54.616;39.754;2023-04-24T05:10:24;100350.78;;;26.13;22.78
74637;BME280;63141;54.616;39.754;2023-04-24T05:13:28;100352.59;;;26.13;22.60
74637;BME280;63141;54.616;39.754;2023-04-24T05:16:39;100355.00;;;26.18;22.72
74637;BME280;63141;54.616;39.754;2023-04-24T05:19:42;100358.22;;;26.24;22.47
74637;BME280;63141;54.616;39.754;2023-04-24T05:22:44;100359.78;;;26.28;22.74
74637;BME280;63141;54.616;39.754;2023-04-24T05:25:46;100356.16;;;26.29;22.64
74637;BME280;63141;54.616;39.754;2023-04-24T05:28:54;100354.28;;;26.31;22.34
74637;BME280;63141;54.616;39.754;2023-04-24T05:31:56;100350.56;;;26.34;22.25
74637;BME280;63141;54.616;39.754;2023-04-24T05:35:04;100353.94;;;26.38;22.40
74637;BME280;63141;54.616;39.754;2023-04-24T05:38:08;100351.03;;;26.42;22.23
74637;BME280;63141;54.616;39.754;2023-04-24T05:41:10;100343.63;;;26.47;22.19
74637;BME280;63141;54.616;39.754;2023-04-24T05:44:14;100352.34;;;26.51;22.42
74637;BME280;63141;54.616;39.754;2023-04-24T05:47:16;100349.13;;;26.44;22.38
74637;BME280;63141;54.616;39.754;2023-04-24T05:50:21;100345.75;;;26.41;22.45
74637;BME280;63141;54.616;39.754;2023-04-24T05:53:25;100349.22;;;26.43;21.86
74637;BME280;63141;54.616;39.754;2023-04-24T05:56:27;100346.38;;;26.46;22.22
74637;BME280;63141;54.616;39.754;2023-04-24T05:59:37;100344.66;;;26.45;22.12
74637;BME280;63141;54.616;39.754;2023-04-24T06:02:42;100351.72;;;26.46;22.00
74637;BME280;63141;54.616;39.754;2023-04-24T06:05:56;100344.56;;;26.46;22.03
74637;BME280;63141;54.616;39.754;2023-04-24T06:09:00;100347.91;;;26.50;22.04
74637;BME280;63141;54.616;39.754;2023-04-24T06:12:09;100345.09;;;26.53;21.77
74637;BME280;63141;54.616;39.754;2023-04-24T06:15:24;100344.00;;;26.57;21.89
74637;BME280;63141;54.616;39.754;2023-04-24T06:18:35;100343.84;;;26.60;22.21
74637;BME280;63141;54.616;39.754;2023-04-24T06:21:42;100348.16;;;26.63;21.81
74637;BME280;63141;54.616;39.754;2023-04-24T06:24:50;100342.72;;;26.64;21.84
74637;BME280;63141;54.616;39.754;2023-04-24T06:28:03;100339.94;;;26.66;22.19
74637;BME280;63141;54.616;39.754;2023-04-24T06:31:05;100354.19;;;26.66;21.80
74637;BME280;63141;54.616;39.754;2023-04-24T06:34:09;100350.75;;;26.64;22.04
74637;BME280;63141;54.616;39.754;2023-04-24T06:37:14;100347.13;;;26.65;21.89
74637;BME280;63141;54.616;39.754;2023-04-24T06:40:19;100346.19;;;26.66;22.10
74637;BME280;63141;54.616;39.754;2023-04-24T06:43:20;100343.50;;;26.66;21.96
74637;BME280;63141;54.616;39.754;2023-04-24T06:46:28;100344.25;;;26.68;21.68
74637;BME280;63141;54.616;39.754;2023-04-24T06:49:29;100333.50;;;26.70;21.85
74637;BME280;63141;54.616;39.754;2023-04-24T06:52:40;100344.88;;;26.73;22.16
74637;BME280;63141;54.616;39.754;2023-04-24T06:55:51;100340.41;;;26.74;21.91
74637;BME280;63141;54.616;39.754;2023-04-24T06:58:52;100337.47;;;26.79;21.98
74637;BME280;63141;54.616;39.754;2023-04-24T07:02:06;100344.53;;;26.80;21.90
74637;BME280;63141;54.616;39.754;2023-04-24T07:05:13;100342.63;;;26.82;21.94
74637;BME280;63141;54.616;39.754;2023-04-24T07:08:28;100342.63;;;26.82;21.70
74637;BME280;63141;54.616;39.754;2023-04-24T07:11:40;100339.16;;;26.80;22.07
74637;BME280;63141;54.616;39.754;2023-04-24T07:14:51;100346.53;;;26.76;21.49
74637;BME280;63141;54.616;39.754;2023-04-24T07:17:53;100342.28;;;26.72;21.80
74637;BME280;63141;54.616;39.754;2023-04-24T07:20:54;100341.59;;;26.68;21.55
74637;BME280;63141;54.616;39.754;2023-04-24T07:23:55;100340.22;;;26.61;21.56
74637;BME280;63141;54.616;39.754;2023-04-24T07:27:00;100342.28;;;26.56;21.17
74637;BME280;63141;54.616;39.754;2023-04-24T07:30:10;100345.97;;;26.53;21.33
74637;BME280;63141;54.616;39.754;2023-04-24T07:33:21;100351.38;;;26.52;20.77
74637;BME280;63141;54.616;39.754;2023-04-24T07:36:49;100342.59;;;26.50;21.06
74637;BME280;63141;54.616;39.754;2023-04-24T07:40:06;100344.81;;;26.42;21.01
74637;BME280;63141;54.616;39.754;2023-04-24T07:43:13;100339.03;;;26.33;21.10
74637;BME280;63141;54.616;39.754;2023-04-24T07:46:14;100339.28;;;26.29;20.76
74637;BME280;63141;54.616;39.754;2023-04-24T07:49:21;100337.56;;;26.28;20.67
74637;BME280;63141;54.616;39.754;2023-04-24T07:52:34;100328.59;;;26.29;20.95
74637;BME280;63141;54.616;39.754;2023-04-24T07:55:48;100329.47;;;26.29;20.44
74637;BME280;63141;54.616;39.754;2023-04-24T07:58:52;100336.72;;;26.27;20.62
74637;BME280;63141;54.616;39.754;2023-04-24T08:02:05;100328.72;;;26.27;20.78
74637;BME280;63141;54.616;39.754;2023-04-24T08:05:24;100329.47;;;26.29;20.56
74637;BME280;63141;54.616;39.754;2023-04-24T08:08:29;100322.41;;;26.28;20.46
74637;BME280;63141;54.616;39.754;2023-04-24T08:11:31;100324.28;;;26.26;20.76
74637;BME280;63141;54.616;39.754;2023-04-24T08:14:38;100319.91;;;26.25;20.41
74637;BME280;63141;54.616;39.754;2023-04-24T08:17:39;100304.81;;;26.24;20.42
74637;BME280;63141;54.616;39.754;2023-04-24T08:20:43;100313.78;;;26.23;20.36
74637;BME280;63141;54.616;39.754;2023-04-24T08:23:46;100312.06;;;26.22;20.46
74637;BME280;63141;54.616;39.754;2023-04-24T08:26:50;100319.28;;;26.20;20.23
74637;BME280;63141;54.616;39.754;2023-04-24T08:30:04;100312.22;;;26.19;20.08
74637;BME280;63141;54.616;39.754;2023-04-24T08:33:11;100313.41;;;26.13;20.31
74637;BME280;63141;54.616;39.754;2023-04-24T08:36:19;100307.22;;;26.13;20.03
74637;BME280;63141;54.616;39.754;2023-04-24T08:39:29;100300.16;;;26.12;20.13
74637;BME280;63141;54.616;39.754;2023-04-24T08:42:44;100306.53;;;26.09;19.89
74637;BME280;63141;54.616;39.754;2023-04-24T08:45:52;100305.81;;;26.06;19.87
74637;BME280;63141;54.616;39.754;2023-04-24T08:48:56;100296.34;;;26.00;19.75
74637;BME280;63141;54.616;39.754;2023-04-24T08:52:02;100297.22;;;26.01;19.92
74637;BME280;63141;54.616;39.754;2023-04-24T08:55:12;100288.25;;;26.02;19.82
74637;BME280;63141;54.616;39.754;2023-04-24T08:58:23;100287.31;;;26.03;19.81
74637;BME280;63141;54.616;39.754;2023-04-24T09:01:32;100288.09;;;26.05;19.63
74637;BME280;63141;54.616;39.754;2023-04-24T09:04:45;100278.22;;;26.07;19.51
74637;BME280;63141;54.616;39.754;2023-04-24T09:07:55;100277.25;;;26.08;19.55
74637;BME280;63141;54.616;39.754;2023-04-24T09:10:57;100284.28;;;26.09;19.39
74637;BME280;63141;54.616;39.754;2023-04-24T09:14:09;100280.69;;;26.10;19.41
74637;BME280;63141;54.616;39.754;2023-04-24T09:17:14;100281.63;;;26.09;19.82
74637;BME280;63141;54.616;39.754;2023-04-24T09:20:22;100278.28;;;26.05;19.67
74637;BME280;63141;54.616;39.754;2023-04-24T09:23:44;100273.13;;;26.02;19.56
74637;BME280;63141;54.616;39.754;2023-04-24T09:27:03;100270.69;;;25.98;19.76
74637;BME280;63141;54.616;39.754;2023-04-24T09:30:05;100265.50;;;25.95;19.58
74637;BME280;63141;54.616;39.754;2023-04-24T09:33:23;100275.41;;;25.92;19.70
74637;BME280;63141;54.616;39.754;2023-04-24T09:36:41;100264.84;;;25.91;19.55
74637;BME280;63141;54.616;39.754;2023-04-24T09:40:14;100267.72;;;25.86;19.54
74637;BME280;63141;54.616;39.754;2023-04-24T09:43:29;100263.31;;;25.85;19.68
74637;BME280;63141;54.616;39.754;2023-04-24T09:46:39;100255.63;;;25.79;19.64
74637;BME280;63141;54.616;39.754;2023-04-24T09:49:40;100255.78;;;25.76;19.62
74637;BME280;63141;54.616;39.754;2023-04-24T09:52:57;100244.28;;;25.76;19.71
74637;BME280;63141;54.616;39.754;2023-04-24T09:56:09;100248.56;;;25.78;19.78
74637;BME280;63141;54.616;39.754;2023-04-24T09:59:23;100243.25;;;25.78;19.77
74637;BME280;63141;54.616;39.754;2023-04-24T10:02:34;100237.19;;;25.75;19.57
74637;BME280;63141;54.616;39.754;2023-04-24T10:06:05;100238.84;;;25.77;19.88
74637;BME280;63141;54.616;39.754;2023-04-24T10:09:28;100238.63;;;25.82;19.50
74637;BME280;63141;54.616;39.754;2023-04-24T10:12:35;100244.63;;;25.85;19.97
74637;BME280;63141;54.616;39.754;2023-04-24T10:15:37;100232.25;;;25.84;19.70
74637;BME280;63141;54.616;39.754;2023-04-24T10:18:39;100235.69;;;25.86;19.75
74637;BME280;63141;54.616;39.754;2023-04-24T10:21:42;100226.91;;;25.84;19.35
74637;BME280;63141;54.616;39.754;2023-04-24T10:24:50;100222.34;;;25.86;19.40
74637;BME280;63141;54.616;39.754;2023-04-24T10:27:59;100228.63;;;25.85;19.66
74637;BME280;63141;54.616;39.754;2023-04-24T10:31:13;100216.09;;;25.87;19.78
74637;BME280;63141;54.616;39.754;2023-04-24T10:34:18;100221.56;;;25.84;19.69
74637;BME280;63141;54.616;39.754;2023-04-24T10:37:28;100212.94;;;25.79;19.70
74637;BME280;63141;54.616;39.754;2023-04-24T10:40:48;100210.63;;;25.73;19.60
74637;BME280;63141;54.616;39.754;2023-04-24T10:44:09;100224.09;;;25.70;19.42
74637;BME280;63141;54.616;39.754;2023-04-24T10:47:25;100217.22;;;25.66;19.40
74637;BME280;63141;54.616;39.754;2023-04-24T10:50:55;100219.25;;;25.61;19.66
74637;BME280;63141;54.616;39.754;2023-04-24T10:54:23;100217.09;;;25.52;19.46
74637;BME280;63141;54.616;39.754;2023-04-24T10:58:03;100218.34;;;25.44;19.67
74637;BME280;63141;54.616;39.754;2023-04-24T11:01:26;100219.56;;;25.39;19.51
74637;BME280;63141;54.616;39.754;2023-04-24T11:04:42;100213.50;;;25.35;19.72
74637;BME280;63141;54.616;39.754;2023-04-24T11:08:16;100205.50;;;25.35;19.73
74637;BME280;63141;54.616;39.754;2023-04-24T11:11:37;100202.78;;;25.37;19.56
74637;BME280;63141;54.616;39.754;2023-04-24T11:15:02;100203.63;;;25.37;19.99
74637;BME280;63141;54.616;39.754;2023-04-24T11:18:15;100195.63;;;25.37;19.98
74637;BME280;63141;54.616;39.754;2023-04-24T11:21:45;100194.59;;;25.40;19.49
74637;BME280;63141;54.616;39.754;2023-04-24T11:24:50;100191.16;;;25.38;19.88
74637;BME280;63141;54.616;39.754;2023-04-24T11:28:06;100183.25;;;25.36;19.69
74637;BME280;63141;54.616;39.754;2023-04-24T11:34:56;100177.38;;;25.29;19.55
74637;BME280;63141;54.616;39.754;2023-04-24T11:38:04;100178.25;;;25.30;19.73
74637;BME280;63141;54.616;39.754;2023-04-24T11:41:23;100171.03;;;25.32;19.92
74637;BME280;63141;54.616;39.754;2023-04-24T11:44:29;100163.94;;;25.31;19.81
74637;BME280;63141;54.616;39.754;2023-04-24T11:47:50;100157.69;;;25.32;19.91
74637;BME280;63141;54.616;39.754;2023-04-24T11:51:07;100153.16;;;25.34;19.92
74637;BME280;63141;54.616;39.754;2023-04-24T11:54:21;100152.91;;;25.39;19.74
74637;BME280;63141;54.616;39.754;2023-04-24T11:57:31;100149.19;;;25.41;19.78
74637;BME280;63141;54.616;39.754;2023-04-24T12:00:58;100143.69;;;25.44;20.18
74637;BME280;63141;54.616;39.754;2023-04-24T12:04:16;100143.69;;;25.44;19.80
74637;BME280;63141;54.616;39.754;2023-04-24T12:07:24;100144.47;;;25.46;19.92
74637;BME280;63141;54.616;39.754;2023-04-24T12:10:42;100137.34;;;25.47;19.83
74637;BME280;63141;54.616;39.754;2023-04-24T12:13:49;100136.91;;;25.39;20.03
74637;BME280;63141;54.616;39.754;2023-04-24T12:16:53;100133.88;;;25.29;19.93
74637;BME280;63141;54.616;39.754;2023-04-24T12:20:06;100130.56;;;25.24;19.63
74637;BME280;63141;54.616;39.754;2023-04-24T12:23:33;100125.16;;;25.25;19.80
74637;BME280;63141;54.616;39.754;2023-04-24T12:26:55;100126.63;;;25.31;20.00
74637;BME280;63141;54.616;39.754;2023-04-24T12:30:05;100122.78;;;25.37;20.16
74637;BME280;63141;54.616;39.754;2023-04-24T12:33:20;100119.03;;;25.41;19.88
74637;BME280;63141;54.616;39.754;2023-04-24T12:36:31;100125.81;;;25.46;19.78
74637;BME280;63141;54.616;39.754;2023-04-24T12:40:12;100114.03;;;25.50;20.14
74637;BME280;63141;54.616;39.754;2023-04-24T12:43:22;100114.13;;;25.49;20.02
74637;BME280;63141;54.616;39.754;2023-04-24T12:46:29;100113.59;;;25.42;20.05
74637;BME280;63141;54.616;39.754;2023-04-24T12:49:36;100103.88;;;25.41;20.22
74637;BME280;63141;54.616;39.754;2023-04-24T12:52:44;100098.47;;;25.43;20.13
74637;BME280;63141;54.616;39.754;2023-04-24T12:56:09;100091.16;;;25.46;20.19
74637;BME280;63141;54.616;39.754;2023-04-24T12:59:23;100091.31;;;25.43;20.28
74637;BME280;63141;54.616;39.754;2023-04-24T13:02:30;100091.31;;;25.43;20.13
74637;BME280;63141;54.616;39.754;2023-04-24T13:05:46;100085.22;;;25.41;20.58
74637;BME280;63141;54.616;39.754;2023-04-24T13:08:59;100083.31;;;25.43;20.29
74637;BME280;63141;54.616;39.754;2023-04-24T13:12:07;100071.63;;;25.46;20.52
74637;BME280;63141;54.616;39.754;2023-04-24T13:15:16;100065.25;;;25.48;20.41
74637;BME280;63141;54.616;39.754;2023-04-24T13:18:20;100087.56;;;25.47;20.47
74637;BME280;63141;54.616;39.754;2023-04-24T13:21:43;100079.28;;;25.36;20.03
74637;BME280;63141;54.616;39.754;2023-04-24T13:25:08;100071.78;;;25.27;20.35
74637;BME280;63141;54.616;39.754;2023-04-24T13:28:12;100072.09;;;25.21;20.39
74637;BME280;63141;54.616;39.754;2023-04-24T13:31:25;100073.06;;;25.20;20.41
74637;BME280;63141;54.616;39.754;2023-04-24T13:34:32;100072.25;;;25.18;20.40
74637;BME280;63141;54.616;39.754;2023-04-24T13:37:54;100068.81;;;25.16;20.40
74637;BME280;63141;54.616;39.754;2023-04-24T13:41:10;100071.53;;;25.14;20.27
74637;BME280;63141;54.616;39.754;2023-04-24T13:44:24;100063.78;;;25.09;20.54
74637;BME280;63141;54.616;39.754;2023-04-24T13:47:46;100075.41;;;25.08;20.57
74637;BME280;63141;54.616;39.754;2023-04-24T13:50:53;100074.78;;;25.03;20.15
74637;BME280;63141;54.616;39.754;2023-04-24T13:53:54;100067.03;;;24.99;20.11
74637;BME280;63141;54.616;39.754;2023-04-24T13:57:10;100066.34;;;24.95;20.16
74637;BME280;63141;54.616;39.754;2023-04-24T14:03:41;100069.94;;;24.94;20.10
74637;BME280;63141;54.616;39.754;2023-04-24T14:07:08;100067.38;;;24.93;20.07
74637;BME280;63141;54.616;39.754;2023-04-24T14:10:10;100068.22;;;24.93;20.28
74637;BME280;63141;54.616;39.754;2023-04-24T14:13:20;100066.34;;;24.95;20.33
74637;BME280;63141;54.616;39.754;2023-04-24T14:16:33;100055.50;;;24.98;19.95
74637;BME280;63141;54.616;39.754;2023-04-24T14:19:53;100051.91;;;24.99;20.32
74637;BME280;63141;54.616;39.754;2023-04-24T14:23:03;100046.41;;;25.02;20.13
74637;BME280;63141;54.616;39.754;2023-04-24T14:26:14;100048.91;;;25.05;20.33
74637;BME280;63141;54.616;39.754;2023-04-24T14:29:24;100044.47;;;25.06;20.27
74637;BME280;63141;54.616;39.754;2023-04-24T14:32:48;100043.44;;;25.08;20.05
74637;BME280;63141;54.616;39.754;2023-04-24T14:36:37;100035.59;;;25.05;20.40
74637;BME280;63141;54.616;39.754;2023-04-24T14:40:03;100035.75;;;25.02;20.21
74637;BME280;63141;54.616;39.754;2023-04-24T14:43:11;100036.69;;;25.01;20.20
74637;BME280;63141;54.616;39.754;2023-04-24T14:46:19;100039.53;;;24.98;20.46
74637;BME280;63141;54.616;39.754;2023-04-24T14:49:30;100038.91;;;24.93;20.25
74637;BME280;63141;54.616;39.754;2023-04-24T14:52:40;100059.63;;;24.88;20.50
74637;BME280;63141;54.616;39.754;2023-04-24T14:55:57;100050.31;;;24.79;20.84
74637;BME280;63141;54.616;39.754;2023-04-24T14:59:16;100062.47;;;24.67;21.58
74637;BME280;63141;54.616;39.754;2023-04-24T15:02:29;100051.56;;;24.55;21.80
74637;BME280;63141;54.616;39.754;2023-04-24T15:05:33;100058.09;;;24.49;22.08
74637;BME280;63141;54.616;39.754;2023-04-24T15:09:12;100051.16;;;24.45;22.78
74637;BME280;63141;54.616;39.754;2023-04-24T15:12:31;100070.88;;;24.41;22.78
74637;BME280;63141;54.616;39.754;2023-04-24T15:15:32;100054.44;;;24.33;22.75
74637;BME280;63141;54.616;39.754;2023-04-24T15:18:39;100052.78;;;24.30;22.96
74637;BME280;63141;54.616;39.754;2023-04-24T15:22:05;100053.00;;;24.25;22.60
74637;BME280;63141;54.616;39.754;2023-04-24T15:25:27;100050.34;;;24.25;23.21
74637;BME280;63141;54.616;39.754;2023-04-24T15:28:52;100050.44;;;24.24;23.12
74637;BME280;63141;54.616;39.754;2023-04-24T15:32:06;100043.16;;;24.28;23.11
74637;BME280;63141;54.616;39.754;2023-04-24T15:35:08;100050.22;;;24.29;23.40
74637;BME280;63141;54.616;39.754;2023-04-24T15:38:09;100048.34;;;24.31;23.46
74637;BME280;63141;54.616;39.754;2023-04-24T15:41:19;100049.13;;;24.33;23.25
74637;BME280;63141;54.616;39.754;2023-04-24T15:44:31;100051.78;;;24.33;24.37
74637;BME280;63141;54.616;39.754;2023-04-24T15:47:41;100058.53;;;24.40;24.53
74637;BME280;63141;54.616;39.754;2023-04-24T15:50:48;100062.38;;;24.52;24.56
74637;BME280;63141;54.616;39.754;2023-04-24T15:54:04;100059.31;;;24.59;24.73
74637;BME280;63141;54.616;39.754;2023-04-24T15:57:11;100055.25;;;24.70;24.90
74637;BME280;63141;54.616;39.754;2023-04-24T16:00:25;100062.06;;;24.75;24.95
74637;BME280;63141;54.616;39.754;2023-04-24T16:03:42;100050.97;;;24.83;25.79
74637;BME280;63141;54.616;39.754;2023-04-24T16:06:52;100051.63;;;24.88;25.57
74637;BME280;63141;54.616;39.754;2023-04-24T16:09:54;100059.28;;;24.94;26.14
74637;BME280;63141;54.616;39.754;2023-04-24T16:13:10;100055.50;;;24.98;26.70
74637;BME280;63141;54.616;39.754;2023-04-24T16:16:29;100058.78;;;25.03;26.79
74637;BME280;63141;54.616;39.754;2023-04-24T16:19:48;100058.63;;;25.06;26.52
74637;BME280;63141;54.616;39.754;2023-04-24T16:23:10;100058.78;;;25.03;26.01